Time;durP1;ratioP1;P1;durP2;ratioP2;P2;SDS_P1;SDS_P2;PMS_P1;PMS_P2;Temp;Humidity;BMP_temperature;BMP_pressure;BME280_temperature;BME280_humidity;BME280_pressure;Samples;Min_cycle;Max_cycle;Signal;HPM_P1;HPM_P2
2021/08/20 00:00:26;;;;;;;8.87;4.77;;;;;;;16.41;75.04;101421.47;2615601;54;20295;-76
2021/08/20 00:02:51;;;;;;;7.90;4.63;;;;;;;16.52;75.03;101414.63;2615897;54;20135;-75
2021/08/20 00:05:17;;;;;;;5.03;3.70;;;;;;;16.46;75.38;101429.22;2616237;54;20144;-77
2021/08/20 00:07:42;;;;;;;9.13;5.00;;;;;;;16.63;74.99;101420.69;2616861;39;20560;-76
2021/08/20 00:10:08;;;;;;;7.33;4.67;;;;;;;16.44;75.79;101425.78;2616773;54;20136;-75
2021/08/20 00:12:34;;;;;;;6.83;4.70;;;;;;;16.71;75.17;101421.59;2616667;54;20123;-74
2021/08/20 00:14:59;;;;;;;8.83;4.60;;;;;;;16.91;74.15;101419.06;2617192;39;20503;-76
2021/08/20 00:17:25;;;;;;;7.13;4.77;;;;;;;16.96;73.92;101419.94;2616863;39;20772;-74
2021/08/20 00:19:50;;;;;;;10.53;4.73;;;;;;;17.19;72.90;101418.28;2616359;54;20131;-74
2021/08/20 00:22:16;;;;;;;7.67;4.70;;;;;;;16.97;73.64;101426.84;2616558;54;20751;-75
2021/08/20 00:24:41;;;;;;;9.50;4.83;;;;;;;17.04;73.36;101418.25;2616978;39;20549;-75
2021/08/20 00:27:07;;;;;;;11.47;5.47;;;;;;;17.20;72.79;101431.22;2616496;54;20166;-75
2021/08/20 00:29:32;;;;;;;8.77;4.87;;;;;;;17.12;72.81;101424.28;2616359;54;20139;-75
2021/08/20 00:31:57;;;;;;;7.17;5.43;;;;;;;17.18;72.10;101419.16;2617096;39;20648;-75
2021/08/20 00:34:24;;;;;;;9.03;5.00;;;;;;;17.06;72.63;101417.41;2616741;54;20134;-75
2021/08/20 00:36:49;;;;;;;8.30;5.40;;;;;;;16.93;73.21;101420.81;2616971;39;20258;-76
2021/08/20 00:39:15;;;;;;;8.63;5.40;;;;;;;16.88;73.21;101422.53;2616675;47;20146;-75
2021/08/20 00:41:41;;;;;;;7.63;4.40;;;;;;;16.72;74.12;101425.06;2616703;54;20268;-75
2021/08/20 00:44:07;;;;;;;7.40;5.10;;;;;;;16.68;73.79;101423.31;2617031;39;20563;-75
2021/08/20 00:46:32;;;;;;;8.90;5.50;;;;;;;16.65;73.63;101419.00;2616469;54;20275;-76
2021/08/20 00:48:57;;;;;;;8.70;5.40;;;;;;;16.88;73.28;101422.53;2616446;54;20159;-75
2021/08/20 00:51:24;;;;;;;7.00;5.20;;;;;;;16.61;73.92;101419.84;2616520;54;20144;-73
2021/08/20 00:53:51;;;;;;;8.50;5.30;;;;;;;16.40;74.85;101426.63;2616374;54;20132;-76
2021/08/20 00:56:16;;;;;;;9.13;5.20;;;;;;;16.35;75.10;101423.97;2616734;54;20139;-75
2021/08/20 00:58:42;;;;;;;8.13;5.13;;;;;;;16.14;75.88;101428.16;2616202;54;20159;-74
2021/08/20 01:01:08;;;;;;;7.40;4.97;;;;;;;16.16;76.15;101422.13;2616306;54;20669;-75
2021/08/20 01:03:33;;;;;;;7.70;5.13;;;;;;;16.07;76.46;101421.25;2616558;54;20132;-73
2021/08/20 01:06:00;;;;;;;8.40;4.67;;;;;;;16.11;76.77;101423.84;2616689;54;20131;-74
2021/08/20 01:08:27;;;;;;;7.93;4.70;;;;;;;16.10;76.86;101423.81;2616398;54;20186;-75
2021/08/20 01:10:55;;;;;;;7.07;4.97;;;;;;;16.25;76.39;101423.94;2616683;39;20529;-76
2021/08/20 01:13:21;;;;;;;10.43;5.17;;;;;;;16.34;75.99;101429.16;2616265;54;20162;-74
2021/08/20 01:15:46;;;;;;;7.43;4.47;;;;;;;16.37;76.38;101427.44;2616069;54;20128;-76
2021/08/20 01:18:34;;;;;;;10.00;5.70;;;;;;;16.26;75.57;101420.50;2616706;39;20868;-75
2021/08/20 01:21:05;;;;;;;6.37;4.60;;;;;;;16.20;76.17;101417.84;2615736;54;20158;-73
2021/08/20 01:23:30;;;;;;;7.93;5.17;;;;;;;16.36;75.34;101422.25;2616316;54;20162;-74
2021/08/20 01:25:57;;;;;;;8.27;5.27;;;;;;;16.44;75.21;101418.88;2616123;54;20127;-73
2021/08/20 01:28:24;;;;;;;8.83;5.57;;;;;;;16.35;75.30;101416.22;2616361;54;20193;-75
2021/08/20 01:30:52;;;;;;;6.07;4.27;;;;;;;15.97;76.95;101415.13;2616099;54;20120;-74
2021/08/20 01:33:18;;;;;;;9.27;5.03;;;;;;;16.03;76.87;101419.47;2616259;54;20200;-75
2021/08/20 01:35:43;;;;;;;7.80;5.20;;;;;;;15.94;76.67;101424.59;2616132;54;20151;-75
2021/08/20 01:38:08;;;;;;;6.27;4.10;;;;;;;15.89;77.69;101427.13;2616623;54;20355;-75
2021/08/20 01:40:33;;;;;;;10.47;5.40;;;;;;;16.23;75.98;101423.03;2616119;54;20259;-75
2021/08/20 01:42:59;;;;;;;7.17;4.10;;;;;;;16.15;76.41;101416.97;2616283;47;20179;-74
2021/08/20 01:45:24;;;;;;;6.00;3.73;;;;;;;16.06;76.62;101416.91;2616459;54;20239;-76
2021/08/20 01:47:49;;;;;;;6.87;4.10;;;;;;;15.77;78.04;101408.97;2617162;39;20598;-74
2021/08/20 01:50:15;;;;;;;9.27;5.07;;;;;;;15.82;77.89;101415.03;2616131;54;20138;-73
2021/08/20 01:52:40;;;;;;;6.93;4.23;;;;;;;15.73;78.12;101407.22;2616302;54;20667;-75
2021/08/20 01:55:08;;;;;;;9.33;4.47;;;;;;;15.76;78.73;101421.88;2616142;54;20172;-76
2021/08/20 01:57:41;;;;;;;6.13;4.13;;;;;;;15.68;78.74;101415.78;2615430;47;20190;-76
2021/08/20 02:00:07;;;;;;;7.50;3.73;;;;;;;15.62;79.27;101415.72;2616134;54;20134;-76
2021/08/20 02:02:32;;;;;;;5.27;4.17;;;;;;;15.63;79.25;101408.00;2616148;54;20128;-75
2021/08/20 02:04:57;;;;;;;6.73;4.40;;;;;;;15.69;79.11;101413.22;2616322;47;20268;-75
2021/08/20 02:07:23;;;;;;;8.37;4.80;;;;;;;15.88;78.21;101414.22;2616019;54;20259;-76
2021/08/20 02:09:48;;;;;;;9.37;5.07;;;;;;;15.96;78.25;101412.53;2615668;54;20248;-75
2021/08/20 02:12:14;;;;;;;9.70;4.83;;;;;;;15.81;78.53;101410.72;2616179;46;20132;-76
2021/08/20 02:14:40;;;;;;;8.27;4.73;;;;;;;15.73;79.10;101406.34;2616255;54;20128;-75
2021/08/20 02:17:05;;;;;;;8.20;5.13;;;;;;;15.67;79.63;101421.78;2616987;31;20628;-75
2021/08/20 02:19:32;;;;;;;6.87;4.60;;;;;;;15.56;79.93;101418.28;2616096;54;20151;-73
2021/08/20 02:21:57;;;;;;;7.30;4.73;;;;;;;15.55;79.85;101425.13;2615885;54;20174;-75
2021/08/20 02:24:22;;;;;;;5.63;3.60;;;;;;;15.43;80.26;101421.59;2616486;47;20128;-74
2021/08/20 02:26:48;;;;;;;6.40;3.93;;;;;;;15.39;80.78;101418.13;2616256;46;20159;-75
2021/08/20 02:29:13;;;;;;;4.43;3.13;;;;;;;15.37;80.75;101419.81;2616168;54;20231;-75
2021/08/20 02:31:38;;;;;;;5.20;3.27;;;;;;;15.35;81.10;101420.66;2615810;54;20124;-75
2021/08/20 02:34:03;;;;;;;8.60;4.80;;;;;;;15.46;80.73;101425.06;2616345;46;20223;-76
2021/08/20 02:36:29;;;;;;;7.63;4.97;;;;;;;15.48;80.37;101431.09;2616296;54;20111;-74
2021/08/20 02:38:54;;;;;;;7.90;5.20;;;;;;;15.77;79.42;101424.47;2615973;54;20178;-75
2021/08/20 02:41:20;;;;;;;7.93;4.63;;;;;;;15.83;79.09;101421.91;2616129;54;20175;-75
2021/08/20 02:43:45;;;;;;;6.97;4.50;;;;;;;15.84;78.96;101418.47;2616258;46;20124;-75
2021/08/20 02:46:10;;;;;;;6.47;4.30;;;;;;;15.67;79.36;101421.78;2616049;54;20187;-74
2021/08/20 02:48:35;;;;;;;6.93;4.97;;;;;;;15.85;78.94;101412.50;2615899;54;20202;-75
2021/08/20 02:51:01;;;;;;;7.77;5.07;;;;;;;15.73;79.36;101414.97;2616331;54;20721;-76
2021/08/20 02:53:26;;;;;;;5.73;4.33;;;;;;;15.58;79.98;101416.56;2616236;54;20275;-76
2021/08/20 02:55:51;;;;;;;8.40;4.60;;;;;;;15.70;80.11;101414.09;2616089;54;20135;-77
2021/08/20 02:58:17;;;;;;;8.20;4.87;;;;;;;15.76;79.27;101412.41;2615983;54;20151;-76
2021/08/20 03:00:42;;;;;;;10.00;5.50;;;;;;;15.71;79.56;101413.22;2616232;39;20889;-75
2021/08/20 03:03:07;;;;;;;7.27;4.80;;;;;;;15.83;79.25;101411.59;2616135;47;20151;-76
2021/08/20 03:05:33;;;;;;;9.13;4.77;;;;;;;15.80;78.78;101408.97;2615986;54;20135;-74
2021/08/20 03:07:58;;;;;;;8.13;4.43;;;;;;;15.57;80.10;101414.84;2615935;46;20155;-75
2021/08/20 03:10:23;;;;;;;5.10;3.90;;;;;;;15.47;80.55;101410.44;2615979;54;20183;-74
2021/08/20 03:12:48;;;;;;;5.53;4.07;;;;;;;15.57;80.85;101412.25;2615921;54;20135;-76
2021/08/20 03:15:14;;;;;;;7.50;4.77;;;;;;;15.64;79.84;101414.00;2615980;54;20144;-75
2021/08/20 03:17:40;;;;;;;8.10;4.90;;;;;;;15.59;79.98;101420.84;2615885;47;20163;-75
2021/08/20 03:20:06;;;;;;;6.67;4.03;;;;;;;15.49;80.33;101408.72;2615832;54;20222;-76
2021/08/20 03:22:31;;;;;;;5.80;3.83;;;;;;;15.49;81.01;101409.59;2615991;54;20127;-74
2021/08/20 03:24:56;;;;;;;5.90;4.47;;;;;;;15.38;80.87;101412.94;2617141;39;20547;-74
2021/08/20 03:27:21;;;;;;;5.73;4.50;;;;;;;15.46;80.62;101413.84;2615894;54;20131;-75
2021/08/20 03:29:47;;;;;;;4.40;3.50;;;;;;;15.34;81.39;101416.34;2615561;54;20970;-76
2021/08/20 03:32:12;;;;;;;4.77;3.70;;;;;;;15.32;81.08;101418.00;2615894;54;20167;-76
2021/08/20 03:34:37;;;;;;;4.53;2.80;;;;;;;15.27;81.44;101419.66;2616182;54;20139;-75
2021/08/20 03:37:03;;;;;;;6.17;3.40;;;;;;;15.27;81.70;101417.97;2615116;47;20135;-75
2021/08/20 03:39:28;;;;;;;4.13;3.43;;;;;;;15.23;82.00;101423.06;2616437;54;20247;-75
2021/08/20 03:41:53;;;;;;;3.50;2.87;;;;;;;15.21;82.19;101414.47;2617209;39;20584;-75
2021/08/20 03:44:19;;;;;;;4.33;3.00;;;;;;;15.20;82.22;101423.06;2616483;46;20201;-75
2021/08/20 03:46:44;;;;;;;4.87;3.80;;;;;;;15.18;82.42;101424.75;2616637;54;20248;-76
2021/08/20 03:49:10;;;;;;;4.23;2.97;;;;;;;15.17;82.33;101426.47;2616568;54;20147;-77
2021/08/20 03:51:35;;;;;;;6.73;4.30;;;;;;;15.23;82.16;101423.94;2616660;54;20120;-76
2021/08/20 03:54:00;;;;;;;6.10;3.60;;;;;;;15.25;82.11;101431.72;2616994;54;20143;-76
2021/08/20 03:56:25;;;;;;;8.70;5.53;;;;;;;15.46;81.64;101424.19;2616712;54;20144;-76
2021/08/20 03:58:53;;;;;;;7.33;4.80;;;;;;;15.48;81.24;101425.91;2616257;54;20163;-75
2021/08/20 04:01:18;;;;;;;7.20;4.67;;;;;;;15.45;81.54;101419.88;2616902;54;20157;-74
2021/08/20 04:03:43;;;;;;;6.27;4.70;;;;;;;15.44;81.24;101426.78;2616681;54;20136;-74
2021/08/20 04:06:10;;;;;;;7.53;5.03;;;;;;;15.36;81.17;101422.38;2617179;39;20594;-75
2021/08/20 04:08:36;;;;;;;8.33;5.63;;;;;;;15.39;81.37;101427.56;2616585;54;20170;-76
2021/08/20 04:11:01;;;;;;;7.97;4.50;;;;;;;15.26;81.93;101434.31;2616982;39;20559;-76
2021/08/20 04:13:27;;;;;;;8.87;5.43;;;;;;;15.30;81.92;101423.16;2616594;54;20120;-76
2021/08/20 04:15:52;;;;;;;5.83;4.17;;;;;;;15.24;82.09;101423.09;2616789;46;20135;-76
2021/08/20 04:18:17;;;;;;;7.33;4.23;;;;;;;15.20;82.70;101423.91;2616460;54;20143;-74
2021/08/20 04:20:43;;;;;;;8.03;4.00;;;;;;;15.25;82.61;101431.72;2616732;39;20760;-76
2021/08/20 04:23:08;;;;;;;6.63;5.03;;;;;;;15.36;81.50;101428.41;2616748;54;20160;-76
2021/08/20 04:25:34;;;;;;;6.60;4.93;;;;;;;15.44;81.66;101431.94;2616697;54;20130;-75
2021/08/20 04:28:00;;;;;;;5.87;4.20;;;;;;;15.33;81.88;101441.25;2616514;54;20268;-76
2021/08/20 04:30:29;;;;;;;9.33;5.70;;;;;;;15.52;81.46;101434.59;2616204;54;20155;-76
2021/08/20 04:32:55;;;;;;;7.63;4.97;;;;;;;15.42;81.89;101437.94;2616692;54;20174;-75
2021/08/20 04:35:20;;;;;;;7.07;4.50;;;;;;;15.40;81.71;101435.34;2616401;54;20132;-75
2021/08/20 04:37:45;;;;;;;8.23;4.43;;;;;;;15.35;82.28;101442.19;2616683;46;20166;-74
2021/08/20 04:40:11;;;;;;;7.40;5.07;;;;;;;15.38;82.35;101441.34;2616456;54;20132;-76
2021/08/20 04:42:37;;;;;;;6.33;4.63;;;;;;;15.33;82.04;101438.66;2616378;54;20142;-75
2021/08/20 04:45:04;;;;;;;6.93;4.27;;;;;;;15.31;82.11;101439.50;2615826;54;20139;-76
2021/08/20 04:47:29;;;;;;;9.23;6.00;;;;;;;15.71;80.58;101449.38;2616795;54;20158;-76
2021/08/20 04:49:54;;;;;;;5.97;5.37;;;;;;;15.69;80.72;101440.72;2615914;54;20123;-74
2021/08/20 04:52:20;;;;;;;5.93;4.77;;;;;;;15.63;80.00;101443.28;2616433;54;20148;-74
2021/08/20 04:54:45;;;;;;;9.00;5.40;;;;;;;15.80;79.68;101444.28;2615913;54;20134;-72
2021/08/20 04:57:11;;;;;;;7.53;5.23;;;;;;;15.74;79.93;101449.41;2616591;54;20131;-75
2021/08/20 04:59:36;;;;;;;6.10;4.80;;;;;;;15.52;80.47;101448.34;2616074;54;20132;-76
2021/08/20 05:02:02;;;;;;;6.33;5.00;;;;;;;15.38;81.09;101447.34;2616637;46;20136;-72
2021/08/20 05:04:28;;;;;;;5.53;4.00;;;;;;;15.41;81.20;101454.25;2616538;54;20122;-73
2021/08/20 05:06:54;;;;;;;7.40;5.30;;;;;;;15.46;80.79;101457.72;2616408;54;20119;-75
2021/08/20 05:09:19;;;;;;;5.67;4.23;;;;;;;15.46;80.31;101453.44;2616070;54;20661;-73
2021/08/20 05:11:44;;;;;;;7.00;4.70;;;;;;;15.25;81.02;101460.09;2615788;54;20128;-73
2021/08/20 05:14:10;;;;;;;5.67;3.43;;;;;;;15.16;81.44;101457.41;2616524;54;20248;-74
2021/08/20 05:16:35;;;;;;;3.50;2.67;;;;;;;15.10;82.19;101460.78;2616891;47;20112;-75
2021/08/20 05:19:00;;;;;;;3.10;2.77;;;;;;;15.04;82.35;101454.69;2616472;54;20135;-75
2021/08/20 05:21:25;;;;;;;4.90;3.60;;;;;;;15.07;82.48;101452.16;2616460;54;20167;-75
2021/08/20 05:23:51;;;;;;;4.47;3.50;;;;;;;15.16;82.52;101460.00;2616361;54;20135;-75
2021/08/20 05:26:16;;;;;;;6.03;4.00;;;;;;;15.35;80.94;101460.25;2616527;46;20626;-74
2021/08/20 05:28:42;;;;;;;6.13;4.57;;;;;;;15.56;80.42;101457.00;2616186;54;20203;-76
2021/08/20 05:31:07;;;;;;;5.80;4.70;;;;;;;15.48;80.48;101467.22;2616190;54;20154;-75
2021/08/20 05:33:32;;;;;;;8.10;4.80;;;;;;;15.60;80.65;101466.47;2616302;54;20120;-76
2021/08/20 05:35:58;;;;;;;5.47;4.27;;;;;;;15.63;80.18;101464.81;2616372;54;20116;-73
2021/08/20 05:38:23;;;;;;;4.67;3.37;;;;;;;15.50;80.19;101467.25;2616341;46;20164;-76
2021/08/20 05:40:48;;;;;;;5.10;3.23;;;;;;;15.47;80.05;101460.34;2616187;54;20112;-75
2021/08/20 05:43:13;;;;;;;6.17;3.20;;;;;;;15.44;79.76;101464.63;2616821;39;20539;-76
2021/08/20 05:45:39;;;;;;;4.43;3.00;;;;;;;15.40;80.63;101465.44;2616561;46;20138;-75
2021/08/20 05:48:06;;;;;;;3.93;2.80;;;;;;;15.20;80.95;101465.19;2616359;46;20151;-76
2021/08/20 05:50:31;;;;;;;4.53;3.13;;;;;;;15.26;81.01;101464.41;2615957;54;20151;-74
2021/08/20 05:52:56;;;;;;;5.80;3.30;;;;;;;15.26;81.22;101467.84;2616276;54;20124;-74
2021/08/20 05:55:22;;;;;;;3.70;2.60;;;;;;;15.20;81.60;101466.91;2616830;39;20554;-75
2021/08/20 05:57:47;;;;;;;5.00;3.50;;;;;;;15.36;81.42;101459.38;2616264;54;20151;-73
2021/08/20 06:00:13;;;;;;;7.07;3.77;;;;;;;15.33;81.81;101469.63;2616024;47;20263;-75
2021/08/20 06:02:40;;;;;;;3.33;2.63;;;;;;;15.22;82.20;101468.66;2616043;54;20240;-75
2021/08/20 06:05:06;;;;;;;4.27;3.53;;;;;;;15.27;82.30;101473.88;2616266;54;20226;-76
2021/08/20 06:07:31;;;;;;;4.07;3.10;;;;;;;15.50;81.27;101469.81;2616245;54;20143;-75
2021/08/20 06:09:56;;;;;;;4.80;3.60;;;;;;;15.66;80.89;101471.72;2616099;54;20118;-75
2021/08/20 06:12:21;;;;;;;4.80;3.30;;;;;;;15.66;80.25;101480.31;2617324;31;20582;-74
2021/08/20 06:14:47;;;;;;;4.33;3.13;;;;;;;15.63;80.03;101476.84;2616607;54;20120;-75
2021/08/20 06:17:12;;;;;;;4.43;3.40;;;;;;;15.70;79.39;101482.06;2616081;54;20116;-75
2021/08/20 06:19:38;;;;;;;4.03;2.97;;;;;;;15.42;80.52;101485.25;2616267;46;21052;-75
2021/08/20 06:22:03;;;;;;;3.93;2.80;;;;;;;15.43;80.71;101489.53;2616321;54;20231;-76
2021/08/20 06:24:28;;;;;;;4.30;3.40;;;;;;;15.47;81.26;101485.31;2616222;54;20217;-76
2021/08/20 06:26:54;;;;;;;5.17;3.43;;;;;;;15.60;81.00;101489.72;2616245;47;20136;-75
2021/08/20 06:29:20;;;;;;;6.00;4.33;;;;;;;15.54;80.87;101495.69;2615840;54;20143;-75
2021/08/20 06:31:46;;;;;;;3.67;3.27;;;;;;;15.45;81.32;101498.19;2616216;54;20127;-75
2021/08/20 06:34:12;;;;;;;3.73;3.00;;;;;;;15.42;81.80;101499.88;2616161;54;20124;-74
2021/08/20 06:36:37;;;;;;;4.53;3.37;;;;;;;15.46;82.06;101506.78;2615969;46;20136;-75
2021/08/20 06:39:03;;;;;;;5.13;4.07;;;;;;;15.51;81.86;101499.97;2615873;54;20159;-74
2021/08/20 06:41:28;;;;;;;3.80;3.20;;;;;;;15.47;81.98;101493.91;2615878;54;20243;-75
2021/08/20 06:43:53;;;;;;;4.03;3.57;;;;;;;15.64;81.61;101492.34;2616047;54;20115;-76
2021/08/20 06:46:19;;;;;;;5.50;3.43;;;;;;;15.77;81.31;101496.78;2616052;54;20151;-76
2021/08/20 06:48:44;;;;;;;5.33;3.93;;;;;;;15.83;80.44;101499.41;2616079;54;20143;-76
2021/08/20 06:51:13;;;;;;;4.27;3.53;;;;;;;15.83;80.54;101495.94;2616014;54;20944;-75
2021/08/20 06:53:39;;;;;;;3.97;3.33;;;;;;;15.78;80.74;101493.34;2615937;54;20164;-75
2021/08/20 06:56:05;;;;;;;2.93;2.50;;;;;;;15.98;79.62;101496.09;2616396;39;20560;-75
2021/08/20 06:58:31;;;;;;;4.40;2.73;;;;;;;16.18;78.77;101495.41;2616090;54;20158;-75
2021/08/20 07:00:56;;;;;;;4.20;2.80;;;;;;;16.03;79.59;101497.00;2615842;54;20111;-75
2021/08/20 07:03:21;;;;;;;3.30;2.67;;;;;;;15.90;79.94;101500.31;2615750;54;20135;-74
2021/08/20 07:05:46;;;;;;;2.40;2.00;;;;;;;15.90;80.31;101493.47;2616177;47;20214;-74
2021/08/20 07:08:12;;;;;;;4.67;2.50;;;;;;;15.93;80.64;101500.38;2615770;54;20159;-74
2021/08/20 07:10:37;;;;;;;3.10;2.80;;;;;;;15.99;80.56;101501.28;2615297;54;20132;-76
2021/08/20 07:13:02;;;;;;;3.07;2.40;;;;;;;16.07;79.38;101497.00;2615740;54;20135;-75
2021/08/20 07:15:28;;;;;;;3.67;2.80;;;;;;;15.98;80.27;101496.94;2616240;54;20123;-74
2021/08/20 07:17:53;;;;;;;3.10;2.30;;;;;;;16.11;80.27;101506.53;2615868;54;20250;-74
2021/08/20 07:20:18;;;;;;;2.83;2.23;;;;;;;16.39;77.86;101505.84;2615969;47;20188;-75
2021/08/20 07:22:44;;;;;;;3.57;2.47;;;;;;;16.12;79.17;101502.22;2615994;54;20135;-75
2021/08/20 07:25:09;;;;;;;2.83;2.37;;;;;;;16.22;79.50;101493.69;2616202;54;20159;-76
2021/08/20 07:27:35;;;;;;;2.97;2.43;;;;;;;16.52;77.96;101501.66;2616465;31;20600;-74
2021/08/20 07:30:01;;;;;;;5.33;2.93;;;;;;;16.43;78.00;101502.47;2616009;47;20267;-74
2021/08/20 07:32:26;;;;;;;3.53;2.73;;;;;;;16.53;78.47;101501.66;2615884;54;20124;-75
2021/08/20 07:34:51;;;;;;;3.20;2.70;;;;;;;16.61;77.36;101502.59;2615329;54;20171;-74
2021/08/20 07:37:16;;;;;;;2.60;2.40;;;;;;;16.76;76.71;101506.97;2615786;47;20939;-74
2021/08/20 07:39:42;;;;;;;3.63;2.40;;;;;;;16.72;76.44;101507.81;2615752;54;20248;-73
2021/08/20 07:42:07;;;;;;;3.20;2.20;;;;;;;16.74;76.29;101513.84;2615981;54;20119;-75
2021/08/20 07:44:33;;;;;;;2.73;2.33;;;;;;;16.88;75.71;101519.97;2615821;54;20700;-76
2021/08/20 07:46:59;;;;;;;3.30;2.40;;;;;;;16.65;77.05;101513.81;2615794;54;20135;-75
2021/08/20 07:49:24;;;;;;;3.80;2.47;;;;;;;16.65;77.46;101508.63;2615735;54;20136;-75
2021/08/20 07:51:50;;;;;;;3.50;3.10;;;;;;;16.61;77.01;101517.22;2615692;54;20200;-76
2021/08/20 07:54:16;;;;;;;3.77;2.73;;;;;;;16.72;76.17;101519.00;2615910;54;20124;-74
2021/08/20 07:56:41;;;;;;;3.30;2.60;;;;;;;16.52;77.38;101522.34;2615752;54;20126;-73
2021/08/20 07:59:06;;;;;;;4.20;2.80;;;;;;;16.41;77.62;101527.47;2615528;47;20140;-75
2021/08/20 08:01:31;;;;;;;4.13;2.90;;;;;;;16.61;77.37;101522.41;2615040;47;20182;-75
2021/08/20 08:03:57;;;;;;;3.20;2.50;;;;;;;16.64;77.17;101523.31;2615900;47;20131;-74
2021/08/20 08:06:26;;;;;;;3.00;2.73;;;;;;;16.76;76.58;101527.69;2615756;54;20120;-76
2021/08/20 08:08:52;;;;;;;3.67;2.30;;;;;;;16.63;77.21;101529.31;2615697;54;20139;-75
2021/08/20 08:11:18;;;;;;;3.17;2.17;;;;;;;16.55;77.95;101533.59;2615011;54;20247;-75
2021/08/20 08:13:44;;;;;;;3.53;2.67;;;;;;;16.75;78.01;101528.50;2615926;54;20119;-75
2021/08/20 08:16:10;;;;;;;3.37;2.50;;;;;;;16.60;78.02;101531.03;2615802;54;20116;-75
2021/08/20 08:18:35;;;;;;;3.17;2.87;;;;;;;16.99;76.99;101526.06;2615758;54;20131;-75
2021/08/20 08:21:01;;;;;;;3.33;2.93;;;;;;;17.00;76.48;101526.03;2615856;47;20142;-74
2021/08/20 08:23:27;;;;;;;3.13;2.40;;;;;;;17.22;76.07;101533.03;2616117;54;20263;-76
2021/08/20 08:25:52;;;;;;;2.90;2.30;;;;;;;17.02;76.56;101545.06;2616747;54;20120;-77
2021/08/20 08:28:20;;;;;;;4.70;2.30;;;;;;;17.14;76.60;101547.69;2616602;54;20226;-76
2021/08/20 08:30:48;;;;;;;4.50;2.47;;;;;;;16.99;76.76;101546.78;2616428;54;20128;-76
2021/08/20 08:33:14;;;;;;;2.57;2.30;;;;;;;16.89;76.86;101550.13;2616598;54;20123;-73
2021/08/20 08:35:39;;;;;;;2.43;2.20;;;;;;;16.72;77.82;101549.22;2616468;54;20132;-77
2021/08/20 08:38:07;;;;;;;2.53;2.20;;;;;;;16.87;77.71;101546.69;2617914;54;20142;-75
2021/08/20 08:40:34;;;;;;;2.27;1.83;;;;;;;16.94;77.19;101546.72;2617128;39;20524;-74
2021/08/20 08:43:00;;;;;;;3.87;2.77;;;;;;;16.92;77.83;101545.00;2616455;54;20151;-74
2021/08/20 08:45:25;;;;;;;2.97;2.40;;;;;;;16.97;78.06;101551.06;2616714;54;20124;-74
2021/08/20 08:47:54;;;;;;;3.70;2.63;;;;;;;17.05;78.65;101554.56;2616836;54;20143;-74
2021/08/20 08:50:21;;;;;;;3.50;2.43;;;;;;;17.15;78.50;101551.13;2616761;39;20822;-74
2021/08/20 08:52:46;;;;;;;2.93;2.40;;;;;;;17.31;77.57;101553.78;2616400;54;20126;-75
2021/08/20 08:55:12;;;;;;;2.53;1.87;;;;;;;17.46;76.18;101553.00;2617494;54;20155;-75
2021/08/20 08:57:38;;;;;;;2.20;2.00;;;;;;;17.58;76.44;101551.31;2616499;54;20143;-75
2021/08/20 09:00:05;;;;;;;2.20;2.00;;;;;;;17.70;74.94;101548.75;2616559;54;20124;-77
2021/08/20 09:02:32;;;;;;;2.20;1.80;;;;;;;17.65;75.02;101558.25;2616659;54;20123;-75
2021/08/20 09:05:10;;;;;;;3.13;2.07;;;;;;;17.75;74.27;101548.75;2616601;54;20137;-73
2021/08/20 09:07:37;;;;;;;5.57;2.60;;;;;;;17.84;74.71;101561.72;2616979;54;20134;-76
2021/08/20 09:10:19;;;;;;;3.07;2.43;;;;;;;17.73;75.18;101563.44;2616765;54;20235;-75
2021/08/20 09:12:53;;;;;;;2.47;2.13;;;;;;;17.62;75.94;101571.19;2616908;39;20457;-76
2021/08/20 09:15:22;;;;;;;3.33;2.87;;;;;;;17.75;74.78;101564.31;2616641;54;20150;-75
2021/08/20 09:17:53;;;;;;;4.10;2.90;;;;;;;17.93;74.95;101559.16;2616595;54;20127;-74
2021/08/20 09:20:24;;;;;;;6.67;3.47;;;;;;;17.76;75.54;101566.91;2616887;54;20874;-74
2021/08/20 09:22:51;;;;;;;5.50;3.30;;;;;;;17.62;76.87;101578.09;2617596;54;20119;-74
2021/08/20 09:25:29;;;;;;;3.20;2.90;;;;;;;17.72;76.67;101564.28;2617836;54;20708;-77
2021/08/20 09:28:17;;;;;;;4.03;3.40;;;;;;;17.75;75.43;101572.94;2617531;54;20134;-74
2021/08/20 09:31:04;;;;;;;3.67;3.20;;;;;;;17.75;76.07;101565.19;2617681;54;20142;-76
2021/08/20 09:33:45;;;;;;;5.57;4.20;;;;;;;17.78;76.04;101567.75;2616281;54;20191;-74
2021/08/20 09:36:12;;;;;;;8.10;6.13;;;;;;;17.77;75.27;101570.38;2616284;54;20131;-74
2021/08/20 09:38:40;;;;;;;9.43;6.47;;;;;;;17.88;75.26;101561.75;2616215;54;20143;-74
2021/08/20 09:41:10;;;;;;;8.43;6.13;;;;;;;18.24;73.38;101559.16;2615906;54;20147;-76
2021/08/20 09:43:37;;;;;;;6.60;5.53;;;;;;;18.15;74.05;101568.69;2616584;54;20175;-75
2021/08/20 09:46:11;;;;;;;7.53;6.47;;;;;;;18.28;74.57;101571.25;2616528;54;20711;-76
2021/08/20 09:48:59;;;;;;;8.17;7.03;;;;;;;18.25;74.53;101566.09;2616307;54;20690;-76
2021/08/20 09:51:30;;;;;;;9.70;7.37;;;;;;;18.29;74.55;101567.78;2626446;36;20863;-74
2021/08/20 09:54:00;;;;;;;7.80;6.53;;;;;;;18.40;74.68;101558.31;2615804;54;20163;-74
2021/08/20 09:56:26;;;;;;;8.70;7.17;;;;;;;18.87;74.01;101561.69;2616395;39;20563;-76
2021/08/20 09:58:54;;;;;;;9.57;7.50;;;;;;;19.20;71.71;101545.13;2616035;54;20163;-76
2021/08/20 10:01:22;;;;;;;9.13;6.37;;;;;;;19.45;71.14;101551.97;2616145;54;20223;-75
2021/08/20 10:03:48;;;;;;;9.23;7.37;;;;;;;19.77;68.30;101550.03;2616441;54;20695;-75
2021/08/20 10:06:14;;;;;;;9.10;7.87;;;;;;;20.07;68.07;101550.66;2616445;54;20127;-76
2021/08/20 10:08:40;;;;;;;9.90;7.17;;;;;;;20.15;67.12;101555.84;2616092;54;20163;-77
2021/08/20 10:11:06;;;;;;;9.80;8.50;;;;;;;19.93;68.61;101552.50;2616146;54;20127;-75
2021/08/20 10:13:32;;;;;;;9.23;7.63;;;;;;;19.83;69.08;101553.47;2616226;54;20107;-75
2021/08/20 10:16:01;;;;;;;8.47;7.53;;;;;;;19.81;68.77;101551.75;2615547;54;20131;-76
2021/08/20 10:18:28;;;;;;;11.33;9.10;;;;;;;20.12;67.47;101551.53;2616101;54;20151;-75
2021/08/20 10:20:54;;;;;;;10.20;9.07;;;;;;;20.00;68.25;101550.72;2616107;54;20148;-76
2021/08/20 10:23:20;;;;;;;11.10;8.80;;;;;;;19.44;70.99;101552.84;2616302;54;20115;-75
2021/08/20 10:25:46;;;;;;;11.80;9.03;;;;;;;19.60;70.99;101546.66;2615895;54;20179;-73
2021/08/20 10:28:13;;;;;;;9.03;8.13;;;;;;;19.66;70.40;101544.06;2616106;54;20159;-77
2021/08/20 10:30:41;;;;;;;9.53;8.50;;;;;;;19.82;69.91;101549.13;2616219;54;20736;-76
2021/08/20 10:33:07;;;;;;;11.60;9.90;;;;;;;20.30;67.71;101537.47;2616149;54;20162;-76
2021/08/20 10:35:47;;;;;;;11.73;9.13;;;;;;;20.20;66.97;101547.13;2616585;54;20219;-76
2021/08/20 10:38:26;;;;;;;12.27;9.77;;;;;;;20.03;68.89;101559.38;2616273;47;20135;-74
2021/08/20 10:41:17;;;;;;;11.07;8.37;;;;;;;19.70;69.91;101554.41;2616179;54;20161;-75
2021/08/20 10:44:20;;;;;;;9.70;8.27;;;;;;;19.83;70.52;101563.84;2633510;36;20227;-76
2021/08/20 10:46:45;;;;;;;9.57;8.57;;;;;;;19.64;71.16;101559.66;2616150;54;20139;-76
2021/08/20 10:51:55;;;;;;;10.77;9.57;;;;;;;19.38;73.29;101561.50;2650493;36;20254;-75
2021/08/20 10:54:41;;;;;;;10.67;9.57;;;;;;;19.38;73.27;101560.63;2615434;54;20128;-73
2021/08/20 10:57:07;;;;;;;12.00;10.33;;;;;;;19.31;73.88;101566.75;2615173;54;20139;-75
2021/08/20 10:59:46;;;;;;;10.00;9.00;;;;;;;19.35;73.10;101553.72;2615450;54;20174;-74
2021/08/20 11:02:24;;;;;;;13.43;10.40;;;;;;;19.65;72.57;101557.91;2615351;54;20147;-77
2021/08/20 11:05:05;;;;;;;12.13;10.43;;;;;;;19.87;72.07;101557.75;2615688;54;20248;-74
2021/08/20 11:07:37;;;;;;;10.30;9.30;;;;;;;19.99;71.35;101559.41;2615809;54;20150;-74
2021/08/20 11:10:08;;;;;;;12.33;9.80;;;;;;;20.20;72.72;101564.47;2615401;54;20139;-76
2021/08/20 11:12:42;;;;;;;11.57;9.87;;;;;;;20.81;70.90;101557.78;2615834;54;20163;-77
2021/08/20 11:15:16;;;;;;;11.73;9.77;;;;;;;21.61;68.17;101555.09;2615837;54;20138;-75
2021/08/20 11:17:50;;;;;;;13.20;11.07;;;;;;;22.12;65.71;101549.09;2615600;54;20249;-75
2021/08/20 11:20:23;;;;;;;12.50;10.87;;;;;;;22.65;64.84;101546.44;2616662;39;20677;-77
2021/08/20 11:23:13;;;;;;;12.83;11.53;;;;;;;23.16;61.88;101537.56;2616437;54;20131;-75
2021/08/20 11:25:51;;;;;;;11.97;10.77;;;;;;;23.32;61.56;101540.75;2616159;39;20346;-75